Terminal Aerodrome Forecast
Issued by NWS

Home | Current Version | Previous Version | Graphics & Text | Print | Product List | Glossary On
Versions: 1 2 3 4 5 6 7 8 9 10 11 12
000
FTUS43 KTOP 211432 AAA
TAFMHK
TAF AMD
KMHK 211432Z 2115/2212 01016G25KT P6SM SCT140
     FM212300 36012KT P6SM SKC
     FM220300 36005KT P6SM SKC=

USA.gov is the U.S. government's official web portal to all federal, state and local government web resources and services.